Time;durP1;ratioP1;P1;durP2;ratioP2;P2;SDS_P1;SDS_P2;PMS_P1;PMS_P2;Temp;Humidity;BMP_temperature;BMP_pressure;BME280_temperature;BME280_humidity;BME280_pressure;Samples;Min_cycle;Max_cycle;Signal;HPM_P1;HPM_P2
2023/10/26 00:01:38;;;;;;;5.18;4.43;;;13.20;99.90;;;;;;5026940;28;20264;-81
2023/10/26 00:04:05;;;;;;;4.57;4.18;;;13.10;99.90;;;;;;5021070;28;20315;-86
2023/10/26 00:06:32;;;;;;;4.00;3.70;;;13.10;99.90;;;;;;5040813;28;20246;-82
2023/10/26 00:09:00;;;;;;;4.30;4.00;;;13.10;99.90;;;;;;5024351;28;20252;-84
2023/10/26 00:11:30;;;;;;;4.05;3.75;;;13.00;99.90;;;;;;5038708;28;20389;-80
2023/10/26 00:13:57;;;;;;;4.15;3.80;;;13.00;99.90;;;;;;5038945;28;20237;-83
2023/10/26 00:16:24;;;;;;;3.97;3.65;;;13.00;99.90;;;;;;5021878;28;20202;-83
2023/10/26 00:18:51;;;;;;;4.20;3.80;;;13.00;99.90;;;;;;5043507;28;20207;-83
2023/10/26 00:21:20;;;;;;;4.15;3.85;;;13.00;99.90;;;;;;5038121;28;20261;-83
2023/10/26 00:23:47;;;;;;;3.70;3.40;;;13.00;99.90;;;;;;5038635;28;20219;-85
2023/10/26 00:26:15;;;;;;;4.20;3.80;;;13.00;99.90;;;;;;5021612;28;20230;-85
2023/10/26 00:28:43;;;;;;;3.97;3.65;;;13.00;99.90;;;;;;5043543;28;20203;-86
2023/10/26 00:31:10;;;;;;;3.75;3.45;;;13.00;99.90;;;;;;5040929;28;20662;-84
2023/10/26 00:33:37;;;;;;;4.13;3.83;;;13.00;99.90;;;;;;5041953;28;20269;-82
2023/10/26 00:36:06;;;;;;;3.88;3.53;;;13.00;99.90;;;;;;5038715;28;20252;-78
2023/10/26 00:38:33;;;;;;;3.88;3.25;;;13.00;99.90;;;;;;5043123;28;20616;-85
2023/10/26 00:41:00;;;;;;;4.05;3.75;;;13.00;99.90;;;;;;5042059;28;20696;-81
2023/10/26 00:43:27;;;;;;;4.05;3.50;;;13.00;99.90;;;;;;5022841;28;20651;-81
2023/10/26 00:45:56;;;;;;;3.90;3.60;;;13.00;99.90;;;;;;5036930;28;20215;-86
2023/10/26 00:48:24;;;;;;;4.60;4.03;;;13.00;99.90;;;;;;5039299;28;20215;-80
2023/10/26 00:50:53;;;;;;;5.63;4.15;;;13.00;99.90;;;;;;5036938;28;20203;-85
2023/10/26 00:53:21;;;;;;;4.75;3.75;;;13.00;99.90;;;;;;5039756;28;20824;-83
2023/10/26 00:55:50;;;;;;;4.03;3.72;;;12.90;99.90;;;;;;5037803;28;20238;-82
2023/10/26 00:58:18;;;;;;;4.85;4.35;;;12.80;99.90;;;;;;5021404;28;20266;-84
2023/10/26 01:00:45;;;;;;;6.22;5.05;;;12.70;99.90;;;;;;5042758;28;20560;-83
2023/10/26 01:03:16;;;;;;;4.72;4.32;;;12.70;99.90;;;;;;5037073;28;20268;-83
2023/10/26 01:05:43;;;;;;;3.72;3.40;;;12.60;99.90;;;;;;5038225;28;20803;-82
2023/10/26 01:08:12;;;;;;;4.22;3.90;;;12.60;99.90;;;;;;5040116;28;20477;-83
2023/10/26 01:10:39;;;;;;;4.55;4.03;;;12.60;99.90;;;;;;5041707;28;20206;-82
2023/10/26 01:13:06;;;;;;;4.50;4.10;;;12.60;99.90;;;;;;5040447;28;20493;-80
2023/10/26 01:15:34;;;;;;;4.25;3.85;;;12.70;99.90;;;;;;5042181;28;20198;-81
2023/10/26 01:18:02;;;;;;;5.43;3.63;;;12.70;99.90;;;;;;5040504;28;20206;-82
2023/10/26 01:20:31;;;;;;;4.28;3.60;;;12.70;99.90;;;;;;5038439;28;20289;-81
2023/10/26 01:23:00;;;;;;;4.07;3.70;;;12.70;99.90;;;;;;5040119;28;20226;-82
2023/10/26 01:25:27;;;;;;;4.00;3.70;;;12.70;99.90;;;;;;5038483;28;20302;-81
2023/10/26 01:27:54;;;;;;;4.80;4.32;;;12.70;99.90;;;;;;5038540;28;20260;-79
2023/10/26 01:30:21;;;;;;;4.70;4.30;;;12.70;99.90;;;;;;5017782;28;20616;-81
2023/10/26 01:32:48;;;;;;;4.85;4.40;;;12.70;99.90;;;;;;5042060;28;20222;-81
2023/10/26 01:35:15;;;;;;;4.32;3.92;;;12.60;99.90;;;;;;5040095;28;20245;-82
2023/10/26 01:37:42;;;;;;;4.43;4.03;;;12.60;99.90;;;;;;5020498;28;20219;-79
2023/10/26 01:40:12;;;;;;;4.13;3.72;;;12.60;99.90;;;;;;5043945;28;20203;-80
2023/10/26 01:42:39;;;;;;;7.03;3.83;;;12.60;99.90;;;;;;5020903;28;20203;-84
2023/10/26 01:45:07;;;;;;;3.50;3.20;;;12.60;99.90;;;;;;5038509;28;20273;-81
2023/10/26 01:47:34;;;;;;;4.25;3.42;;;12.70;99.90;;;;;;5036628;28;20241;-81
2023/10/26 01:50:02;;;;;;;3.30;3.00;;;12.60;99.90;;;;;;5033504;28;20203;-79
2023/10/26 01:52:29;;;;;;;4.25;3.30;;;12.70;99.90;;;;;;5025030;28;20230;-79
2023/10/26 01:54:57;;;;;;;3.90;3.60;;;12.70;99.90;;;;;;5023995;28;20194;-83
2023/10/26 01:57:26;;;;;;;3.40;3.10;;;12.70;99.90;;;;;;5041181;28;20202;-81
2023/10/26 01:59:55;;;;;;;3.72;3.42;;;12.70;99.90;;;;;;5036470;28;20783;-78
2023/10/26 02:02:22;;;;;;;3.53;3.22;;;12.70;99.90;;;;;;5034576;28;20708;-81
2023/10/26 02:04:49;;;;;;;3.35;3.10;;;12.70;99.90;;;;;;5036717;28;20219;-79
2023/10/26 02:07:17;;;;;;;4.35;3.25;;;12.70;99.90;;;;;;5039006;28;20206;-82
2023/10/26 02:09:45;;;;;;;3.50;3.20;;;12.60;99.90;;;;;;5041980;28;20245;-79
2023/10/26 02:12:12;;;;;;;3.97;3.38;;;12.60;99.90;;;;;;5036886;28;20211;-81
2023/10/26 02:14:41;;;;;;;4.10;3.45;;;12.60;99.90;;;;;;5038700;28;20215;-83
2023/10/26 02:17:09;;;;;;;3.92;3.35;;;12.60;99.90;;;;;;5037521;28;20268;-82
2023/10/26 02:19:38;;;;;;;3.40;3.10;;;12.60;99.90;;;;;;5040491;28;20620;-82
2023/10/26 02:22:06;;;;;;;3.28;2.97;;;12.60;99.90;;;;;;5036753;28;20207;-81
2023/10/26 02:24:33;;;;;;;3.53;3.22;;;12.50;99.90;;;;;;5033346;28;20266;-86
2023/10/26 02:27:00;;;;;;;3.70;3.40;;;12.50;99.90;;;;;;5022789;28;20735;-83
2023/10/26 02:29:27;;;;;;;3.92;3.25;;;12.40;99.90;;;;;;5039048;28;20249;-85
2023/10/26 02:31:55;;;;;;;3.55;3.05;;;12.40;99.90;;;;;;5041989;28;20206;-80
2023/10/26 02:34:23;;;;;;;5.50;3.80;;;12.50;99.90;;;;;;5036787;28;20295;-84
2023/10/26 02:36:50;;;;;;;4.32;3.35;;;12.50;99.90;;;;;;5043774;28;20206;-83
2023/10/26 02:39:17;;;;;;;3.10;2.90;;;12.50;99.90;;;;;;5018602;28;20202;-80
2023/10/26 02:41:44;;;;;;;3.58;3.28;;;12.50;99.90;;;;;;5020474;28;20198;-83
2023/10/26 02:44:11;;;;;;;3.78;3.40;;;12.50;99.90;;;;;;5038154;28;20593;-85
2023/10/26 02:46:38;;;;;;;4.25;3.45;;;12.50;99.90;;;;;;5044715;28;20268;-82
2023/10/26 02:49:07;;;;;;;3.97;3.20;;;12.50;99.90;;;;;;5042005;28;20592;-79
2023/10/26 02:51:34;;;;;;;3.40;3.10;;;12.50;99.90;;;;;;5045663;28;20199;-84
2023/10/26 02:54:02;;;;;;;3.70;3.40;;;12.60;99.90;;;;;;5039587;28;20255;-82
2023/10/26 02:56:29;;;;;;;3.50;3.20;;;12.60;99.90;;;;;;5039132;28;20656;-82
2023/10/26 02:58:56;;;;;;;3.63;3.33;;;12.60;99.90;;;;;;5026188;28;20293;-80
2023/10/26 03:01:23;;;;;;;3.90;3.60;;;12.60;99.90;;;;;;5040365;28;20771;-84
2023/10/26 03:03:51;;;;;;;4.30;3.90;;;12.60;99.90;;;;;;5037333;28;20239;-81
2023/10/26 03:06:19;;;;;;;3.90;3.50;;;12.60;99.90;;;;;;5042109;28;20306;-86
2023/10/26 03:08:46;;;;;;;3.70;3.40;;;12.60;99.90;;;;;;5040291;28;20573;-87
2023/10/26 03:11:13;;;;;;;4.13;3.72;;;12.60;99.90;;;;;;5044518;28;20207;-82
2023/10/26 03:13:41;;;;;;;4.30;3.55;;;12.60;99.90;;;;;;5039704;28;20224;-84
2023/10/26 03:16:10;;;;;;;7.97;3.35;;;12.60;99.90;;;;;;5044750;28;20203;-85
2023/10/26 03:18:37;;;;;;;3.72;3.42;;;12.60;99.90;;;;;;5027598;28;20195;-86
2023/10/26 03:21:05;;;;;;;4.18;3.75;;;12.60;99.90;;;;;;5047372;28;20657;-88
2023/10/26 03:23:34;;;;;;;4.57;3.63;;;12.60;99.90;;;;;;5030755;28;20280;-82
2023/10/26 03:26:01;;;;;;;3.50;3.20;;;12.60;99.90;;;;;;5021689;28;20298;-86
2023/10/26 03:28:29;;;;;;;4.28;3.88;;;12.60;99.90;;;;;;5048653;28;20293;-87
2023/10/26 03:30:56;;;;;;;4.00;3.67;;;12.60;99.90;;;;;;5025317;28;20685;-85
2023/10/26 03:33:23;;;;;;;3.65;3.38;;;12.50;99.90;;;;;;5040681;28;20226;-80
2023/10/26 03:35:50;;;;;;;2.90;2.70;;;12.50;99.90;;;;;;5045783;28;20847;-78
2023/10/26 03:38:17;;;;;;;4.13;3.72;;;12.50;99.90;;;;;;5044451;28;20700;-84
2023/10/26 03:40:46;;;;;;;3.45;3.08;;;12.50;99.90;;;;;;5045770;28;20813;-85
2023/10/26 03:43:13;;;;;;;3.53;3.22;;;12.50;99.90;;;;;;5044487;28;20615;-87
2023/10/26 03:45:41;;;;;;;3.45;3.15;;;12.50;99.90;;;;;;5020918;28;20215;-83
2023/10/26 03:48:09;;;;;;;3.70;3.22;;;12.50;99.90;;;;;;5039177;28;20281;-81
2023/10/26 03:50:37;;;;;;;4.28;3.88;;;12.50;99.90;;;;;;5043412;28;20240;-84
2023/10/26 03:53:05;;;;;;;3.83;3.53;;;12.50;99.90;;;;;;5040715;28;20269;-79
2023/10/26 03:55:32;;;;;;;3.97;3.67;;;12.50;99.90;;;;;;5042352;28;20191;-81
2023/10/26 03:58:00;;;;;;;3.25;2.95;;;12.50;99.90;;;;;;5042965;28;20269;-83
2023/10/26 04:00:28;;;;;;;4.65;3.20;;;12.50;99.90;;;;;;5037047;28;20653;-83
2023/10/26 04:02:55;;;;;;;3.33;3.10;;;12.50;99.90;;;;;;5043164;28;20641;-82
2023/10/26 04:05:22;;;;;;;4.28;3.80;;;12.50;99.90;;;;;;5045528;28;20865;-80
2023/10/26 04:07:50;;;;;;;3.83;3.53;;;12.50;99.90;;;;;;5043774;28;20261;-80
2023/10/26 04:10:18;;;;;;;3.72;3.42;;;12.60;99.90;;;;;;5039711;28;20572;-80
2023/10/26 04:12:45;;;;;;;3.90;3.60;;;12.50;99.90;;;;;;5039544;28;20712;-82
2023/10/26 04:15:14;;;;;;;3.70;3.40;;;12.50;99.90;;;;;;5038867;28;20253;-78
2023/10/26 04:17:41;;;;;;;3.67;3.38;;;12.50;99.90;;;;;;5022838;28;20204;-81
2023/10/26 04:20:10;;;;;;;6.00;3.25;;;12.50;99.90;;;;;;5020800;28;20336;-83
2023/10/26 04:22:37;;;;;;;4.18;3.78;;;12.50;99.90;;;;;;5035106;28;20202;-81
2023/10/26 04:25:05;;;;;;;3.30;3.00;;;12.50;99.90;;;;;;5020978;28;20653;-84
2023/10/26 04:27:34;;;;;;;3.65;3.22;;;12.50;99.90;;;;;;5037100;28;20546;-78
2023/10/26 04:30:01;;;;;;;3.30;3.10;;;12.50;99.90;;;;;;5022846;28;20287;-81
2023/10/26 04:32:30;;;;;;;3.42;3.13;;;12.50;99.90;;;;;;5040822;28;20774;-78
2023/10/26 04:34:57;;;;;;;3.15;2.95;;;12.50;99.90;;;;;;5042350;28;20257;-78
2023/10/26 04:37:24;;;;;;;3.50;3.20;;;12.50;99.90;;;;;;5010443;28;20286;-80
2023/10/26 04:39:51;;;;;;;3.30;3.00;;;12.50;99.90;;;;;;5038793;28;20263;-80
2023/10/26 04:42:18;;;;;;;3.85;3.55;;;12.50;99.90;;;;;;5041138;28;20381;-84
2023/10/26 04:44:46;;;;;;;3.75;3.45;;;12.60;99.90;;;;;;5038992;28;20227;-81
2023/10/26 04:47:13;;;;;;;3.40;3.10;;;12.60;99.90;;;;;;5043663;28;20284;-83
2023/10/26 04:49:42;;;;;;;4.00;3.70;;;12.60;99.90;;;;;;5035525;28;20665;-84
2023/10/26 04:52:14;;;;;;;3.65;3.35;;;12.60;99.90;;;;;;5025146;28;20579;-84
2023/10/26 04:54:41;;;;;;;3.90;3.60;;;12.60;99.90;;;;;;5038682;28;20221;-81
2023/10/26 04:57:09;;;;;;;4.80;4.40;;;12.60;99.90;;;;;;5044355;28;20226;-81
2023/10/26 04:59:36;;;;;;;4.88;4.45;;;12.60;99.90;;;;;;5046669;28;20234;-80
2023/10/26 05:02:03;;;;;;;5.05;4.55;;;12.50;99.90;;;;;;5045529;28;20208;-77
2023/10/26 05:04:30;;;;;;;5.00;4.55;;;12.50;99.90;;;;;;5026070;28;20304;-80
2023/10/26 05:06:59;;;;;;;4.88;4.15;;;12.40;99.90;;;;;;5040731;28;20264;-80
2023/10/26 05:09:26;;;;;;;7.47;5.38;;;12.30;99.90;;;;;;5036164;28;20195;-82
2023/10/26 05:11:54;;;;;;;5.10;4.53;;;12.20;99.90;;;;;;5023255;28;20888;-82
2023/10/26 05:14:21;;;;;;;5.07;4.57;;;12.20;99.90;;;;;;5040231;28;20368;-83
2023/10/26 05:16:50;;;;;;;4.40;4.00;;;12.20;99.90;;;;;;5044089;28;20629;-82
2023/10/26 05:19:17;;;;;;;4.70;4.30;;;12.20;99.90;;;;;;5039938;28;20721;-80
2023/10/26 05:21:44;;;;;;;4.18;3.78;;;12.20;99.90;;;;;;5043647;28;20203;-80
2023/10/26 05:24:13;;;;;;;4.57;4.18;;;12.20;99.90;;;;;;5047316;28;20226;-84
2023/10/26 05:26:40;;;;;;;4.80;4.40;;;12.30;99.90;;;;;;5045265;28;20272;-75
2023/10/26 05:29:07;;;;;;;4.35;3.95;;;12.30;99.90;;;;;;5030753;28;20261;-82
2023/10/26 05:31:34;;;;;;;5.10;3.70;;;12.30;99.90;;;;;;5041816;28;20195;-82
2023/10/26 05:34:01;;;;;;;4.40;4.00;;;12.30;99.90;;;;;;5023914;28;20250;-80
2023/10/26 05:36:28;;;;;;;5.72;4.20;;;12.30;99.90;;;;;;5044933;28;20245;-80
2023/10/26 05:38:55;;;;;;;4.75;4.25;;;12.30;99.90;;;;;;5022595;28;20282;-79
2023/10/26 05:41:24;;;;;;;4.53;3.78;;;12.30;99.90;;;;;;5039484;28;20199;-81
2023/10/26 05:43:51;;;;;;;4.25;3.85;;;12.30;99.90;;;;;;5023984;28;20723;-78
2023/10/26 05:46:19;;;;;;;4.50;4.10;;;12.30;99.90;;;;;;5047467;28;20626;-80
2023/10/26 05:48:46;;;;;;;5.65;4.32;;;12.30;99.90;;;;;;5021349;28;20203;-82
2023/10/26 05:51:13;;;;;;;4.07;3.67;;;12.40;99.90;;;;;;5045779;28;20196;-79
2023/10/26 05:53:40;;;;;;;4.10;3.80;;;12.40;99.90;;;;;;5025931;28;20215;-82
2023/10/26 05:56:08;;;;;;;4.95;4.25;;;12.40;99.90;;;;;;5027066;28;20249;-79
2023/10/26 05:58:37;;;;;;;5.03;4.47;;;12.40;99.90;;;;;;5048065;28;20656;-84
2023/10/26 06:01:05;;;;;;;4.90;4.40;;;12.40;99.90;;;;;;5034349;28;20199;-82
2023/10/26 06:03:32;;;;;;;4.95;4.50;;;12.40;99.90;;;;;;5048661;28;20227;-84
2023/10/26 06:06:00;;;;;;;4.35;4.00;;;12.40;99.90;;;;;;5029314;28;20310;-84
2023/10/26 06:08:27;;;;;;;4.15;3.80;;;12.40;99.90;;;;;;5045869;28;20282;-78
2023/10/26 06:10:54;;;;;;;4.85;4.45;;;12.40;99.90;;;;;;5045994;28;20206;-84
2023/10/26 06:13:21;;;;;;;4.38;3.97;;;12.40;99.90;;;;;;5048869;28;20223;-85
2023/10/26 06:15:50;;;;;;;5.00;3.75;;;12.40;99.90;;;;;;5045389;28;20203;-81
2023/10/26 06:18:17;;;;;;;4.18;3.88;;;12.50;99.90;;;;;;5048132;28;20195;-81
2023/10/26 06:20:56;;;;;;;5.03;4.53;;;12.50;99.90;;;;;;5048184;28;20265;-81
2023/10/26 06:23:23;;;;;;;4.97;4.47;;;12.50;99.90;;;;;;5048102;28;20218;-81
2023/10/26 06:25:51;;;;;;;4.43;3.85;;;12.50;99.90;;;;;;5025690;28;20302;-80
2023/10/26 06:28:19;;;;;;;4.72;4.28;;;12.50;99.90;;;;;;5043864;28;20194;-82
2023/10/26 06:30:46;;;;;;;4.82;4.25;;;12.50;99.90;;;;;;5046601;28;20199;-81
2023/10/26 06:33:14;;;;;;;4.68;3.75;;;12.50;99.90;;;;;;5030038;28;20309;-79
2023/10/26 06:35:42;;;;;;;4.68;4.30;;;12.50;99.90;;;;;;5027710;28;20286;-80
2023/10/26 06:38:08;;;;;;;4.28;3.95;;;12.50;99.90;;;;;;5041492;28;20927;-80
2023/10/26 06:40:37;;;;;;;4.40;4.00;;;12.50;99.90;;;;;;5038888;28;20199;-79
2023/10/26 06:43:05;;;;;;;4.28;3.97;;;12.50;99.90;;;;;;5039407;28;20227;-82
2023/10/26 06:45:32;;;;;;;4.50;4.10;;;12.50;99.90;;;;;;5038053;28;20273;-76
2023/10/26 06:47:59;;;;;;;4.20;3.90;;;12.50;99.90;;;;;;5046280;28;20211;-80
2023/10/26 06:50:28;;;;;;;4.30;3.92;;;12.50;99.90;;;;;;5036232;28;20199;-82
2023/10/26 06:52:55;;;;;;;4.63;4.22;;;12.50;99.90;;;;;;5017740;28;20708;-82
2023/10/26 06:55:22;;;;;;;4.63;4.22;;;12.50;99.90;;;;;;5038001;28;20268;-80
2023/10/26 06:57:49;;;;;;;4.65;4.25;;;12.60;99.90;;;;;;5036598;28;22545;-86
2023/10/26 07:00:17;;;;;;;4.55;4.13;;;12.60;99.90;;;;;;5041145;28;20250;-87
2023/10/26 07:02:44;;;;;;;3.65;3.35;;;12.60;99.90;;;;;;5021032;28;20294;-83
2023/10/26 07:05:11;;;;;;;4.15;3.85;;;12.70;99.90;;;;;;5039793;28;20199;-82
2023/10/26 07:07:40;;;;;;;4.10;3.78;;;12.70;99.90;;;;;;5038184;28;20247;-81
2023/10/26 07:10:14;;;;;;;4.05;3.60;;;12.80;99.90;;;;;;5025826;28;20290;-82
2023/10/26 07:12:41;;;;;;;4.50;4.10;;;12.80;99.90;;;;;;5021450;28;20818;-83
2023/10/26 07:15:09;;;;;;;4.55;4.15;;;12.90;99.90;;;;;;5044157;28;20211;-85
2023/10/26 07:17:36;;;;;;;5.13;4.40;;;12.90;99.90;;;;;;5037118;28;20326;-81
2023/10/26 07:20:05;;;;;;;5.63;4.75;;;12.90;99.90;;;;;;5037717;28;20199;-78
2023/10/26 07:22:33;;;;;;;6.28;5.00;;;12.90;99.90;;;;;;5044890;28;20198;-84
2023/10/26 07:25:02;;;;;;;5.63;4.45;;;12.90;99.90;;;;;;5023104;28;20219;-78
2023/10/26 07:27:30;;;;;;;5.07;4.57;;;12.90;99.90;;;;;;5042948;28;20210;-80
2023/10/26 07:29:57;;;;;;;5.32;4.82;;;12.90;99.90;;;;;;5040812;28;20665;-77
2023/10/26 07:32:24;;;;;;;4.50;4.05;;;12.90;99.90;;;;;;5047508;28;20616;-82
2023/10/26 07:34:54;;;;;;;4.85;4.32;;;13.00;99.90;;;;;;5046290;28;20241;-81
2023/10/26 07:37:21;;;;;;;5.15;4.75;;;13.00;99.90;;;;;;5055453;28;20210;-82
2023/10/26 07:39:48;;;;;;;5.00;4.47;;;13.00;99.90;;;;;;5049279;28;20234;-81
2023/10/26 07:42:17;;;;;;;6.00;5.20;;;13.00;99.90;;;;;;5043239;28;20254;-83
2023/10/26 07:44:45;;;;;;;6.93;5.20;;;13.00;99.90;;;;;;5046037;28;20218;-85
2023/10/26 07:47:12;;;;;;;6.32;5.60;;;12.90;99.90;;;;;;5029425;28;20253;-81
2023/10/26 07:49:39;;;;;;;6.65;5.88;;;12.90;99.90;;;;;;5028374;28;20199;-82
2023/10/26 07:52:07;;;;;;;6.65;5.97;;;12.90;99.90;;;;;;5045379;28;20195;-81
2023/10/26 07:54:35;;;;;;;8.18;5.57;;;12.90;99.90;;;;;;5024075;28;20295;-80
2023/10/26 07:57:02;;;;;;;5.65;4.88;;;12.90;99.90;;;;;;5045731;28;20191;-84
2023/10/26 07:59:32;;;;;;;4.90;4.50;;;12.90;99.90;;;;;;5027373;28;20202;-83
2023/10/26 08:01:59;;;;;;;4.78;4.38;;;12.90;99.90;;;;;;5024156;28;20281;-83
2023/10/26 08:04:29;;;;;;;6.40;4.28;;;12.90;99.90;;;;;;5030483;28;20257;-82
2023/10/26 08:06:56;;;;;;;5.22;4.53;;;12.90;99.90;;;;;;5042462;28;20692;-79
2023/10/26 08:09:23;;;;;;;4.80;4.40;;;13.00;99.90;;;;;;5044771;28;20207;-80
2023/10/26 08:11:51;;;;;;;4.90;4.50;;;13.00;99.90;;;;;;5028665;28;20202;-86
2023/10/26 08:14:19;;;;;;;3.70;3.40;;;13.00;99.90;;;;;;5045900;28;20223;-82
2023/10/26 08:16:47;;;;;;;4.28;3.78;;;13.10;99.90;;;;;;5041027;28;20195;-79
2023/10/26 08:19:14;;;;;;;4.40;4.00;;;13.10;99.90;;;;;;5040640;28;20676;-82
2023/10/26 08:21:43;;;;;;;5.95;4.47;;;13.10;99.90;;;;;;5047871;28;20210;-81
2023/10/26 08:24:10;;;;;;;4.65;4.25;;;13.20;99.90;;;;;;5045672;28;20231;-80
2023/10/26 08:26:38;;;;;;;4.97;4.13;;;13.10;99.90;;;;;;5029129;28;20219;-80
2023/10/26 08:29:05;;;;;;;4.47;4.05;;;13.20;99.90;;;;;;5028638;28;20207;-85
2023/10/26 08:31:35;;;;;;;3.70;3.40;;;13.20;99.90;;;;;;5047170;28;20253;-81
2023/10/26 08:34:05;;;;;;;4.15;3.75;;;13.30;99.90;;;;;;5044520;28;20220;-84
2023/10/26 08:36:32;;;;;;;4.82;4.43;;;13.30;99.90;;;;;;5023563;28;20282;-80
2023/10/26 08:39:01;;;;;;;4.93;4.43;;;13.20;99.90;;;;;;5024717;28;20286;-81
2023/10/26 08:41:36;;;;;;;4.22;3.83;;;13.30;99.90;;;;;;5045768;28;20195;-83
2023/10/26 08:44:04;;;;;;;3.83;3.53;;;13.40;99.90;;;;;;5036349;28;20285;-82
2023/10/26 08:46:31;;;;;;;5.03;4.25;;;13.40;99.90;;;;;;5040105;28;20257;-84
2023/10/26 08:48:59;;;;;;;4.93;4.43;;;13.50;99.90;;;;;;5038570;28;20705;-83
2023/10/26 08:51:28;;;;;;;6.30;5.25;;;13.60;99.90;;;;;;5037772;28;20206;-81
2023/10/26 08:53:56;;;;;;;5.18;4.75;;;13.50;99.90;;;;;;5037855;28;20239;-79
2023/10/26 08:56:24;;;;;;;8.32;4.78;;;13.50;99.90;;;;;;5044565;28;20570;-80
2023/10/26 08:58:59;;;;;;;5.88;4.80;;;13.40;99.90;;;;;;5041049;28;20293;-81
2023/10/26 09:01:26;;;;;;;5.68;5.18;;;13.30;99.90;;;;;;5041314;28;20202;-79
2023/10/26 09:03:53;;;;;;;5.60;4.53;;;13.30;99.90;;;;;;5020304;28;20234;-79
2023/10/26 09:06:21;;;;;;;4.65;4.05;;;13.20;99.90;;;;;;5042763;28;20200;-80
2023/10/26 09:09:03;;;;;;;5.05;3.85;;;13.20;99.90;;;;;;5049088;28;20207;-82
2023/10/26 09:11:32;;;;;;;4.93;4.25;;;13.30;99.90;;;;;;5039110;28;20278;-83
2023/10/26 09:14:13;;;;;;;5.22;4.72;;;13.40;99.90;;;;;;5041087;28;20261;-84
2023/10/26 09:16:43;;;;;;;5.85;4.75;;;13.40;99.90;;;;;;5039044;28;20203;-82
2023/10/26 09:19:11;;;;;;;4.85;4.45;;;13.40;99.90;;;;;;5022817;28;20199;-84
2023/10/26 09:21:55;;;;;;;5.43;4.18;;;13.40;99.90;;;;;;5042543;28;20263;-82
2023/10/26 09:24:29;;;;;;;4.55;3.90;;;13.50;99.90;;;;;;5042158;28;20234;-86
2023/10/26 09:26:57;;;;;;;4.70;4.25;;;13.60;99.90;;;;;;5036150;28;20215;-85
2023/10/26 09:29:36;;;;;;;5.20;4.47;;;13.70;99.90;;;;;;5044383;28;20733;-82
2023/10/26 09:32:04;;;;;;;4.90;4.45;;;13.70;99.90;;;;;;5037688;28;20284;-85
2023/10/26 09:34:39;;;;;;;5.30;4.10;;;13.80;99.90;;;;;;5038820;28;20219;-81
2023/10/26 09:37:07;;;;;;;6.47;4.65;;;13.80;99.90;;;;;;5038391;28;20246;-85
2023/10/26 09:39:37;;;;;;;4.53;4.13;;;13.80;99.90;;;;;;5004202;28;20864;-80
2023/10/26 09:42:09;;;;;;;4.18;3.85;;;13.80;99.90;;;;;;5041154;28;20203;-81
2023/10/26 09:44:38;;;;;;;4.30;3.97;;;13.70;99.90;;;;;;5037603;28;20700;-83
2023/10/26 09:47:06;;;;;;;4.00;3.55;;;13.60;99.90;;;;;;5026675;28;20215;-81
2023/10/26 09:49:33;;;;;;;8.32;4.05;;;13.60;99.90;;;;;;5042234;28;20195;-85
2023/10/26 09:52:00;;;;;;;4.68;4.13;;;13.60;99.90;;;;;;5025038;28;20957;-82
2023/10/26 09:54:31;;;;;;;4.60;3.90;;;13.60;99.90;;;;;;5038669;28;20224;-80
2023/10/26 09:57:05;;;;;;;5.45;4.80;;;13.60;99.90;;;;;;5036540;28;20862;-84
2023/10/26 09:59:33;;;;;;;6.40;5.30;;;13.50;99.90;;;;;;5039383;28;20264;-79
2023/10/26 10:02:13;;;;;;;8.88;5.97;;;13.40;99.90;;;;;;5009571;28;20211;-78
2023/10/26 10:04:41;;;;;;;6.85;5.78;;;13.30;99.90;;;;;;5040924;28;20218;-82
2023/10/26 10:07:08;;;;;;;5.85;5.35;;;13.30;99.90;;;;;;5040541;28;20243;-79
2023/10/26 10:10:04;;;;;;;6.00;5.50;;;13.30;99.90;;;;;;5040898;28;20199;-81
2023/10/26 10:12:35;;;;;;;6.32;5.40;;;13.30;99.90;;;;;;5021323;28;20286;-80
2023/10/26 10:15:06;;;;;;;6.88;5.85;;;13.30;99.90;;;;;;5042955;28;20637;-82
2023/10/26 10:18:03;;;;;;;5.82;5.32;;;13.30;99.90;;;;;;5040578;28;20206;-77
2023/10/26 10:20:34;;;;;;;6.43;5.93;;;13.40;99.90;;;;;;5021184;28;20210;-79
2023/10/26 10:23:02;;;;;;;6.57;5.93;;;13.50;99.90;;;;;;5040443;28;20226;-81
2023/10/26 10:25:58;;;;;;;5.53;5.03;;;13.70;99.90;;;;;;5019870;28;20211;-78
2023/10/26 10:28:48;;;;;;;5.50;5.00;;;13.90;99.90;;;;;;5043052;28;20970;-80
2023/10/26 10:31:37;;;;;;;8.45;4.85;;;14.00;99.90;;;;;;5023049;28;20282;-80
2023/10/26 10:34:05;;;;;;;5.85;5.25;;;14.10;99.90;;;;;;5038717;28;20219;-80
2023/10/26 10:37:07;;;;;;;4.50;4.03;;;14.10;99.90;;;;;;5022057;28;20216;-77
2023/10/26 10:39:34;;;;;;;5.63;4.35;;;14.00;99.90;;;;;;5038226;28;20336;-79
2023/10/26 10:42:04;;;;;;;5.13;4.65;;;13.90;99.90;;;;;;5007942;28;20291;-79
2023/10/26 10:44:36;;;;;;;4.60;4.20;;;13.90;99.90;;;;;;5039860;28;20308;-80
2023/10/26 10:47:04;;;;;;;4.55;3.92;;;13.80;99.90;;;;;;5035912;28;20235;-77
2023/10/26 10:49:31;;;;;;;4.20;3.80;;;13.80;99.90;;;;;;5009677;28;20282;-77
2023/10/26 10:51:58;;;;;;;5.72;4.60;;;13.90;99.90;;;;;;5023116;28;20648;-78
2023/10/26 10:54:26;;;;;;;3.90;3.58;;;13.90;99.90;;;;;;5018105;28;20853;-81
2023/10/26 10:56:53;;;;;;;4.20;3.80;;;13.80;99.90;;;;;;5040229;28;20199;-80
2023/10/26 10:59:21;;;;;;;4.13;3.78;;;13.80;99.90;;;;;;5039149;28;20238;-77
2023/10/26 11:01:51;;;;;;;4.78;4.22;;;13.70;99.90;;;;;;5026170;28;21204;-79
2023/10/26 11:04:22;;;;;;;4.63;4.20;;;13.60;99.90;;;;;;5019390;28;20280;-78
2023/10/26 11:06:50;;;;;;;6.88;5.05;;;13.60;99.90;;;;;;5003238;28;20210;-76
2023/10/26 11:09:24;;;;;;;4.28;3.97;;;13.50;99.90;;;;;;5042321;28;20279;-77
2023/10/26 11:11:52;;;;;;;3.90;3.50;;;13.50;99.90;;;;;;5039272;28;20293;-78
2023/10/26 11:14:20;;;;;;;4.15;3.75;;;13.50;99.90;;;;;;5039456;28;20268;-79
2023/10/26 11:16:48;;;;;;;4.88;4.38;;;13.50;99.90;;;;;;5041951;28;20225;-77
2023/10/26 11:19:17;;;;;;;4.78;4.38;;;13.50;99.90;;;;;;5037511;28;20195;-79
2023/10/26 11:21:44;;;;;;;3.90;3.60;;;13.50;99.90;;;;;;5026259;28;20341;-78
2023/10/26 11:24:11;;;;;;;3.65;3.40;;;13.50;99.90;;;;;;5043318;28;20234;-79
2023/10/26 11:26:39;;;;;;;4.47;4.07;;;13.60;99.90;;;;;;5039673;28;20887;-78
2023/10/26 11:29:17;;;;;;;4.55;4.15;;;13.70;99.90;;;;;;5022058;28;20226;-83
2023/10/26 11:31:44;;;;;;;5.25;4.28;;;13.70;99.90;;;;;;5047082;28;20202;-79
2023/10/26 11:34:12;;;;;;;4.63;4.15;;;13.70;99.90;;;;;;5047589;28;20309;-79
2023/10/26 11:36:45;;;;;;;5.20;4.68;;;13.60;99.90;;;;;;5023375;28;20253;-78
2023/10/26 11:39:12;;;;;;;5.90;4.45;;;13.60;99.90;;;;;;5039092;28;20260;-81
2023/10/26 11:41:40;;;;;;;4.22;3.92;;;13.60;99.90;;;;;;5046034;28;20258;-79
2023/10/26 11:44:25;;;;;;;4.25;3.75;;;13.70;99.90;;;;;;5044964;28;20308;-76
2023/10/26 11:46:57;;;;;;;4.45;4.05;;;13.80;99.90;;;;;;5037887;28;20282;-77
2023/10/26 11:49:38;;;;;;;5.30;4.82;;;13.80;99.90;;;;;;5046645;28;20852;-80
2023/10/26 11:52:07;;;;;;;4.40;4.00;;;13.90;99.90;;;;;;5024299;28;20206;-79
2023/10/26 11:54:34;;;;;;;5.05;4.55;;;13.90;99.90;;;;;;5038456;28;20276;-80
2023/10/26 11:57:01;;;;;;;5.65;5.05;;;14.00;99.90;;;;;;5038218;28;20260;-78
2023/10/26 11:59:28;;;;;;;5.85;5.25;;;13.90;99.90;;;;;;5038828;28;20199;-77
2023/10/26 12:01:55;;;;;;;6.13;5.05;;;13.90;99.90;;;;;;5042017;28;20211;-76
2023/10/26 12:04:22;;;;;;;7.15;4.65;;;13.80;99.90;;;;;;5040828;28;20215;-77
2023/10/26 12:06:49;;;;;;;4.97;4.47;;;13.90;99.90;;;;;;5038639;28;20700;-80
2023/10/26 12:09:18;;;;;;;5.57;4.50;;;13.80;99.90;;;;;;5018883;28;20211;-79
2023/10/26 12:11:46;;;;;;;4.80;4.40;;;13.90;99.90;;;;;;5040387;28;20203;-79
2023/10/26 12:14:14;;;;;;;4.53;4.13;;;13.90;99.90;;;;;;5022084;28;20306;-79
2023/10/26 12:16:42;;;;;;;5.22;4.72;;;13.90;99.90;;;;;;5038693;28;20199;-78
2023/10/26 12:19:10;;;;;;;4.55;4.15;;;13.90;99.90;;;;;;5036376;28;20195;-78
2023/10/26 12:21:37;;;;;;;5.05;4.57;;;13.90;99.90;;;;;;5038194;28;20203;-76
2023/10/26 12:24:05;;;;;;;5.30;4.80;;;13.90;99.90;;;;;;5020100;28;20235;-76
2023/10/26 12:26:34;;;;;;;5.78;4.20;;;13.90;99.90;;;;;;5020133;28;20203;-79
2023/10/26 12:29:04;;;;;;;4.75;4.35;;;13.80;99.90;;;;;;5036327;28;20280;-81
2023/10/26 12:31:32;;;;;;;4.30;3.90;;;13.80;99.90;;;;;;5038013;28;20252;-78
2023/10/26 12:33:59;;;;;;;4.38;4.07;;;13.90;99.90;;;;;;5019786;28;20266;-78
2023/10/26 12:36:26;;;;;;;5.22;3.70;;;13.90;99.90;;;;;;5035382;28;20231;-78
2023/10/26 12:38:53;;;;;;;4.28;3.97;;;13.90;99.90;;;;;;5037569;28;20850;-80
2023/10/26 12:41:20;;;;;;;4.35;3.95;;;14.00;99.90;;;;;;5039545;28;20203;-80
2023/10/26 12:43:49;;;;;;;5.18;4.60;;;14.00;99.90;;;;;;5036422;28;20486;-77
2023/10/26 12:46:16;;;;;;;5.35;4.85;;;14.00;99.90;;;;;;5041432;28;20294;-75
2023/10/26 12:48:43;;;;;;;5.65;4.22;;;14.00;99.90;;;;;;5036003;28;20211;-77
2023/10/26 12:51:10;;;;;;;4.75;4.25;;;14.00;99.90;;;;;;5016779;28;20211;-76
2023/10/26 12:53:37;;;;;;;5.38;4.70;;;13.90;99.90;;;;;;5038638;28;20219;-76
2023/10/26 12:56:06;;;;;;;5.82;4.40;;;14.00;99.90;;;;;;5039410;28;20211;-80